Time;durP1;ratioP1;P1;durP2;ratioP2;P2;SDS_P1;SDS_P2;PMS_P1;PMS_P2;Temp;Humidity;BMP_temperature;BMP_pressure;BME280_temperature;BME280_humidity;BME280_pressure;Samples;Min_cycle;Max_cycle;Signal;HPM_P1;HPM_P2
2021/12/16 00:07:21;;;;;;;1999.90;999.90;;;;;;;3.81;61.67;102684.81;4917971;28;100718;-74
2021/12/16 00:09:56;;;;;;;1999.90;999.90;;;;;;;3.80;61.70;102683.91;4909799;28;99446;-74
2021/12/16 00:29:52;;;;;;;1999.90;999.90;;;;;;;3.72;61.49;102678.81;4920705;28;97234;-74
2021/12/16 00:32:32;;;;;;;1999.90;999.90;;;;;;;3.73;61.17;102676.31;4911078;28;97381;-73
2021/12/16 00:35:01;;;;;;;1999.90;999.90;;;;;;;3.76;61.24;102679.19;4923105;28;97009;-73
2021/12/16 00:37:29;;;;;;;1999.90;999.90;;;;;;;3.76;60.85;102681.81;4917315;28;98498;-73
2021/12/16 00:39:57;;;;;;;1999.90;999.90;;;;;;;3.75;60.98;102686.97;4912794;28;97640;-74
2021/12/16 00:42:36;;;;;;;1999.90;999.90;;;;;;;3.76;60.98;102684.47;4912969;28;98278;-74
2021/12/16 00:45:28;;;;;;;1999.90;999.90;;;;;;;3.78;60.99;102690.78;4913936;28;96951;-74
2021/12/16 00:48:01;;;;;;;1999.90;999.90;;;;;;;3.81;60.88;102688.38;4922480;28;97972;-74
2021/12/16 00:56:07;;;;;;;1999.90;999.90;;;;;;;3.84;61.03;102688.59;4906320;28;97196;-74
2021/12/16 00:58:43;;;;;;;1999.90;999.90;;;;;;;3.83;60.90;102689.41;4914435;28;97849;-74
2021/12/16 01:01:26;;;;;;;1999.90;999.90;;;;;;;3.85;60.63;102695.72;4897419;28;99236;-74
2021/12/16 01:04:14;;;;;;;1999.90;999.90;;;;;;;3.85;60.73;102700.97;4910895;28;97072;-74
2021/12/16 01:07:00;;;;;;;1999.90;999.90;;;;;;;3.82;60.83;102700.75;4909807;28;99263;-75
2021/12/16 01:35:01;;;;;;;1999.90;999.90;;;;;;;3.74;60.78;102709.75;4917700;28;100190;-74
2021/12/16 01:38:10;;;;;;;1999.90;999.90;;;;;;;3.73;60.61;102721.06;4903330;28;98265;-74
2021/12/16 01:41:28;;;;;;;1999.90;999.90;;;;;;;3.74;60.80;102722.00;4912006;28;97123;-74
2021/12/16 01:49:47;;;;;;;1999.90;999.90;;;;;;;3.71;60.98;102717.41;4875898;28;98214;-74
2021/12/16 01:52:40;;;;;;;1999.90;999.90;;;;;;;3.71;60.88;102722.69;4894853;28;97265;-74
2021/12/16 01:55:15;;;;;;;1999.90;999.90;;;;;;;3.70;60.86;102715.56;4919683;28;96879;-74
2021/12/16 01:57:48;;;;;;;1999.90;999.90;;;;;;;3.72;60.83;102724.50;4909516;28;98524;-74
2021/12/16 02:00:25;;;;;;;1999.90;999.90;;;;;;;3.73;60.78;102721.06;4906287;28;99304;-74
2021/12/16 02:03:00;;;;;;;1999.90;999.90;;;;;;;3.77;60.72;102714.34;4907147;28;97880;-74
2021/12/16 02:05:50;;;;;;;1999.90;999.90;;;;;;;3.78;60.71;102710.91;4909993;28;97117;-74
2021/12/16 02:08:23;;;;;;;1999.90;999.90;;;;;;;3.80;60.76;102711.94;4928545;28;99359;-74
2021/12/16 02:11:10;;;;;;;1999.90;999.90;;;;;;;3.77;60.38;102720.50;4922015;28;96824;-75
2021/12/16 02:27:36;;;;;;;1999.90;999.90;;;;;;;3.80;60.47;102718.16;4908232;28;99040;-74
2021/12/16 02:33:11;;;;;;;1999.90;999.90;;;;;;;3.80;60.46;102722.47;4916483;28;98641;-75
2021/12/16 02:35:44;;;;;;;1999.90;999.90;;;;;;;3.79;60.39;102718.94;4908564;28;98462;-74
2021/12/16 02:38:16;;;;;;;1999.90;999.90;;;;;;;3.79;60.69;102720.63;4909650;28;96935;-75
2021/12/16 02:40:46;;;;;;;1999.90;999.90;;;;;;;3.80;60.47;102718.16;4925133;28;98815;-74
2021/12/16 02:43:48;;;;;;;1999.90;999.90;;;;;;;3.80;60.41;102712.88;4892131;28;101979;-74
2021/12/16 02:48:58;;;;;;;1999.90;999.90;;;;;;;3.79;60.36;102708.38;4915222;28;97368;-74
2021/12/16 02:51:27;;;;;;;1999.90;999.90;;;;;;;3.76;60.53;102712.50;4909317;28;99083;-74
2021/12/16 02:53:59;;;;;;;1999.90;999.90;;;;;;;3.75;60.35;102724.75;4908892;28;98458;-73
2021/12/16 02:56:27;;;;;;;1999.90;999.90;;;;;;;3.76;60.34;102729.22;4908215;28;97796;-73
2021/12/16 02:58:58;;;;;;;1999.90;999.90;;;;;;;3.80;60.13;102726.03;4907880;28;96858;-73
2021/12/16 03:01:30;;;;;;;1999.90;999.90;;;;;;;3.77;60.21;102727.53;4908401;28;97751;-73
2021/12/16 03:04:00;;;;;;;1999.90;999.90;;;;;;;3.74;60.45;102722.91;4891897;28;100322;-73
2021/12/16 03:06:30;;;;;;;1999.90;999.90;;;;;;;3.73;60.47;102726.31;4915126;28;98477;-74
2021/12/16 03:09:04;;;;;;;1999.90;999.90;;;;;;;3.71;60.30;102721.75;4907260;28;97796;-73
2021/12/16 03:11:41;;;;;;;1999.90;999.90;;;;;;;3.67;60.41;102730.19;4905314;28;98212;-74
2021/12/16 03:14:30;;;;;;;1999.90;999.90;;;;;;;3.65;60.53;102737.97;4909096;28;97642;-74
2021/12/16 03:17:10;;;;;;;1999.90;999.90;;;;;;;3.63;60.47;102731.63;4893381;28;97250;-73
2021/12/16 03:19:56;;;;;;;1999.90;999.90;;;;;;;3.57;60.44;102725.88;4887658;28;97646;-74
2021/12/16 03:22:44;;;;;;;1999.90;999.90;;;;;;;3.56;60.55;102721.41;4907676;28;98582;-73
2021/12/16 03:25:22;;;;;;;1999.90;999.90;;;;;;;3.55;60.64;102716.03;4907685;28;97571;-74
2021/12/16 03:33:52;;;;;;;1999.90;999.90;;;;;;;3.46;60.74;102705.66;4890463;28;98619;-74
2021/12/16 03:36:29;;;;;;;1999.90;999.90;;;;;;;3.42;60.33;102711.50;4904534;28;98927;-74
2021/12/16 03:38:59;;;;;;;1999.90;999.90;;;;;;;3.42;60.34;102722.03;4892396;28;97498;-73
2021/12/16 03:41:33;;;;;;;1999.90;999.90;;;;;;;3.40;60.54;102717.44;4914488;28;99220;-73
2021/12/16 03:44:04;;;;;;;1999.90;999.90;;;;;;;3.38;60.58;102711.13;4929110;28;98680;-73
2021/12/16 03:46:35;;;;;;;1999.90;999.90;;;;;;;3.37;60.46;102712.81;4914781;28;100520;-74
2021/12/16 03:49:08;;;;;;;1999.90;999.90;;;;;;;3.33;60.60;102713.38;4906685;28;97178;-74
2021/12/16 03:51:40;;;;;;;1999.90;999.90;;;;;;;3.34;60.78;102723.13;4915298;28;97542;-74
2021/12/16 03:54:13;;;;;;;1999.90;999.90;;;;;;;3.29;60.70;102719.19;4915640;28;97037;-74
2021/12/16 03:56:45;;;;;;;1999.90;999.90;;;;;;;3.26;60.81;102710.16;4922862;28;98703;-73
2021/12/16 03:59:18;;;;;;;1999.90;999.90;;;;;;;3.23;60.57;102708.16;4906273;28;98360;-73
2021/12/16 04:01:55;;;;;;;1999.90;999.90;;;;;;;3.23;60.90;102714.34;4915034;28;97126;-73
2021/12/16 04:04:30;;;;;;;1999.90;999.90;;;;;;;3.22;60.76;102720.41;4899314;28;99281;-73
2021/12/16 04:07:00;;;;;;;1999.90;999.90;;;;;;;3.22;60.91;102722.13;4914362;28;97483;-73
2021/12/16 04:09:30;;;;;;;1999.90;999.90;;;;;;;3.22;60.85;102722.13;4921981;28;96931;-74
2021/12/16 04:12:19;;;;;;;1999.90;999.90;;;;;;;3.16;60.75;102730.44;4913740;28;97726;-73
2021/12/16 04:14:51;;;;;;;1999.90;999.90;;;;;;;3.16;60.70;102732.16;4911702;28;97848;-73
2021/12/16 04:17:21;;;;;;;1999.90;999.90;;;;;;;3.17;60.67;102736.59;4922102;28;98783;-74
2021/12/16 04:19:55;;;;;;;1999.90;999.90;;;;;;;3.16;60.59;102743.59;4905545;28;97324;-74
2021/12/16 04:22:29;;;;;;;1999.90;999.90;;;;;;;3.14;60.90;102744.25;4922618;28;98248;-74
2021/12/16 04:25:03;;;;;;;1999.90;999.90;;;;;;;3.11;60.75;102750.16;4920058;28;100315;-74
2021/12/16 04:27:34;;;;;;;1999.90;999.90;;;;;;;3.12;61.13;102752.03;4921017;28;98492;-74
2021/12/16 04:30:06;;;;;;;1999.90;999.90;;;;;;;3.11;60.99;102749.28;4911441;28;97651;-74
2021/12/16 04:32:36;;;;;;;1999.90;999.90;;;;;;;3.08;60.95;102742.03;4909455;28;97644;-74
2021/12/16 04:35:06;;;;;;;1999.90;999.90;;;;;;;3.09;60.88;102750.84;4927924;28;98567;-74
2021/12/16 04:37:35;;;;;;;1999.90;999.90;;;;;;;3.08;60.69;102739.41;4904595;28;99284;-74
2021/12/16 04:40:06;;;;;;;1999.90;999.90;;;;;;;3.09;61.09;102738.59;4928102;28;98175;-74
2021/12/16 04:42:37;;;;;;;1999.90;999.90;;;;;;;3.09;61.15;102735.06;4913832;28;97175;-74
2021/12/16 04:45:07;;;;;;;1999.90;999.90;;;;;;;3.10;61.20;102743.09;4904666;28;98908;-74
2021/12/16 04:47:37;;;;;;;1999.90;999.90;;;;;;;3.12;61.17;102735.31;4910412;28;99477;-74
2021/12/16 04:50:07;;;;;;;1999.90;999.90;;;;;;;3.12;60.86;102740.56;4894219;28;100767;-74
2021/12/16 04:52:35;;;;;;;1999.90;999.90;;;;;;;3.10;60.98;102737.81;4909507;28;97738;-74
2021/12/16 04:55:04;;;;;;;1999.90;999.90;;;;;;;3.10;60.81;102743.09;4898916;28;100325;-74
2021/12/16 04:57:32;;;;;;;1999.90;999.90;;;;;;;3.10;61.34;102736.88;4925915;28;96901;-74
2021/12/16 05:00:02;;;;;;;1999.90;999.90;;;;;;;3.09;61.41;102748.22;4911436;28;96913;-74
2021/12/16 05:02:33;;;;;;;1999.90;999.90;;;;;;;3.09;61.28;102753.47;4902120;28;97649;-74
2021/12/16 05:05:22;;;;;;;1999.90;999.90;;;;;;;3.07;60.95;102755.06;4911038;28;97093;-73
2021/12/16 05:07:51;;;;;;;1999.90;999.90;;;;;;;3.08;61.59;102752.56;4903901;28;100559;-73
2021/12/16 05:10:25;;;;;;;1999.90;999.90;;;;;;;3.09;61.33;102751.75;4910404;28;97469;-74
2021/12/16 05:13:08;;;;;;;1999.90;999.90;;;;;;;3.08;61.22;102756.88;4909272;28;98234;-73
2021/12/16 05:15:40;;;;;;;1999.90;999.90;;;;;;;3.10;61.15;102752.69;4912914;28;97019;-73
2021/12/16 05:18:14;;;;;;;1999.90;999.90;;;;;;;3.08;61.09;102754.25;4906971;28;98340;-73
2021/12/16 05:20:49;;;;;;;1999.90;999.90;;;;;;;3.06;60.83;102756.75;4894548;28;98213;-73
2021/12/16 05:26:20;;;;;;;1999.90;999.90;;;;;;;3.06;60.89;102764.66;4927147;28;98555;-73
2021/12/16 05:29:08;;;;;;;1999.90;999.90;;;;;;;3.04;61.27;102765.31;4894614;28;98908;-73
2021/12/16 05:31:38;;;;;;;1999.90;999.90;;;;;;;3.04;61.16;102773.19;4920397;28;97002;-76
2021/12/16 05:34:09;;;;;;;1999.90;999.90;;;;;;;3.06;61.36;102780.44;4912958;28;98080;-73
2021/12/16 05:36:40;;;;;;;1999.90;999.90;;;;;;;3.06;61.41;102782.13;4917356;28;97801;-73
2021/12/16 05:39:10;;;;;;;1999.90;999.90;;;;;;;3.09;61.08;102785.03;4900911;28;98506;-73
2021/12/16 05:41:48;;;;;;;1999.90;999.90;;;;;;;3.11;60.89;102783.47;4903645;28;97261;-75
2021/12/16 05:44:18;;;;;;;1999.90;999.90;;;;;;;3.11;61.39;102788.72;4909772;28;97738;-72
2021/12/16 05:46:49;;;;;;;1999.90;999.90;;;;;;;3.12;61.17;102790.56;4909580;28;97676;-72
2021/12/16 05:49:18;;;;;;;1999.90;999.90;;;;;;;3.13;61.21;102785.41;4917721;28;98637;-72
2021/12/16 05:51:49;;;;;;;1999.90;999.90;;;;;;;3.14;61.49;102796.84;4911356;28;97155;-74
2021/12/16 05:54:18;;;;;;;1999.90;999.90;;;;;;;3.17;61.36;102791.84;4916881;28;98340;-74
2021/12/16 05:56:51;;;;;;;1999.90;999.90;;;;;;;3.17;61.25;102786.56;4916527;28;97649;-74
2021/12/16 05:59:21;;;;;;;1999.90;999.90;;;;;;;3.18;61.27;102796.31;4901641;28;99506;-73
2021/12/16 06:01:52;;;;;;;1999.90;999.90;;;;;;;3.20;61.50;102800.91;4919087;28;97887;-74
2021/12/16 06:04:26;;;;;;;1999.90;999.90;;;;;;;3.24;61.47;102807.34;4919199;28;96847;-73
2021/12/16 06:07:00;;;;;;;1999.90;999.90;;;;;;;3.26;61.71;102811.00;4904326;28;100383;-74
2021/12/16 06:09:28;;;;;;;1999.90;999.90;;;;;;;3.28;61.83;102809.44;4914862;28;98764;-74
2021/12/16 06:11:56;;;;;;;1999.90;999.90;;;;;;;3.32;61.39;102819.44;4910411;28;97458;-73
2021/12/16 06:14:38;;;;;;;1999.90;999.90;;;;;;;3.34;61.45;102816.91;4914553;28;97263;-73
2021/12/16 06:23:08;;;;;;;1999.90;999.90;;;;;;;3.38;62.34;102819.94;4914947;28;97168;-73
2021/12/16 06:28:17;;;;;;;1999.90;999.90;;;;;;;3.44;61.95;102825.69;4915634;28;99378;-74
2021/12/16 06:30:45;;;;;;;1999.90;999.90;;;;;;;3.43;62.37;102831.75;4896923;28;98539;-74
2021/12/16 06:33:17;;;;;;;1999.90;999.90;;;;;;;3.42;62.47;102829.94;4914074;28;97647;-73
2021/12/16 06:35:47;;;;;;;1999.90;999.90;;;;;;;3.40;62.60;102839.41;4910963;28;101031;-73
2021/12/16 06:38:15;;;;;;;1999.90;999.90;;;;;;;3.40;62.53;102844.69;4915362;28;99109;-74
2021/12/16 06:41:02;;;;;;;1999.90;999.90;;;;;;;3.40;62.94;102844.69;4911791;28;98194;-73
2021/12/16 06:43:54;;;;;;;1999.90;999.90;;;;;;;3.43;62.52;102850.19;4910242;28;97008;-73
2021/12/16 06:46:31;;;;;;;1999.90;999.90;;;;;;;3.46;62.11;102852.16;4912465;28;97585;-73
2021/12/16 06:49:01;;;;;;;1999.90;999.90;;;;;;;3.50;62.32;102844.63;4914438;28;98688;-74
2021/12/16 06:51:38;;;;;;;1999.90;999.90;;;;;;;3.52;62.24;102840.41;4911186;28;97972;-73
2021/12/16 06:54:12;;;;;;;1999.90;999.90;;;;;;;3.53;62.40;102836.97;4913706;28;96829;-74
2021/12/16 06:56:49;;;;;;;1999.90;999.90;;;;;;;3.58;62.15;102843.56;4922287;28;96912;-73
2021/12/16 06:59:23;;;;;;;1999.90;999.90;;;;;;;3.63;62.24;102846.53;4910141;28;98879;-74
2021/12/16 07:02:04;;;;;;;1999.90;999.90;;;;;;;3.67;62.20;102840.78;4921729;28;97028;-74
2021/12/16 07:04:34;;;;;;;1999.90;999.90;;;;;;;3.68;62.03;102843.53;4910890;28;97144;-73
2021/12/16 07:07:04;;;;;;;1999.90;999.90;;;;;;;3.69;62.17;102839.19;4911028;28;97605;-73
2021/12/16 07:09:32;;;;;;;1999.90;999.90;;;;;;;3.68;62.33;102854.06;4922716;28;99232;-74
2021/12/16 07:12:00;;;;;;;1999.90;999.90;;;;;;;3.68;62.29;102856.69;4912810;28;98016;-74
2021/12/16 07:14:38;;;;;;;1999.90;999.90;;;;;;;3.69;62.18;102861.19;4908804;28;97202;-74
2021/12/16 07:17:08;;;;;;;1999.90;999.90;;;;;;;3.71;62.08;102872.75;4911243;28;97616;-74
2021/12/16 07:19:38;;;;;;;1999.90;999.90;;;;;;;3.72;61.99;102877.22;4908198;28;98690;-74
2021/12/16 07:22:06;;;;;;;1999.90;999.90;;;;;;;3.71;62.42;102875.41;4911070;28;98613;-74
2021/12/16 07:24:35;;;;;;;1999.90;999.90;;;;;;;3.70;62.27;102884.06;4924826;28;97089;-74
2021/12/16 07:27:04;;;;;;;1999.90;999.90;;;;;;;3.72;62.31;102886.81;4910693;28;97779;-73
2021/12/16 07:29:32;;;;;;;1999.90;999.90;;;;;;;3.73;62.29;102886.94;4909137;28;97642;-74
2021/12/16 07:32:01;;;;;;;1999.90;999.90;;;;;;;3.75;62.02;102876.56;4913482;28;99180;-74
2021/12/16 07:34:30;;;;;;;1999.90;999.90;;;;;;;3.77;62.17;102882.88;4909163;28;96935;-74
2021/12/16 07:36:59;;;;;;;1999.90;999.90;;;;;;;3.73;62.65;102883.41;4909742;28;97249;-73
2021/12/16 07:39:30;;;;;;;1999.90;999.90;;;;;;;3.70;62.80;102889.34;4910372;28;98547;-73
2021/12/16 07:41:58;;;;;;;1999.90;999.90;;;;;;;3.70;62.55;102891.97;4909431;28;100880;-73
2021/12/16 07:44:29;;;;;;;1999.90;999.90;;;;;;;3.70;62.48;102886.69;4909690;28;96757;-73
2021/12/16 07:46:59;;;;;;;1999.90;999.90;;;;;;;3.70;62.70;102889.34;4917820;28;97249;-73
2021/12/16 07:49:31;;;;;;;1999.90;999.90;;;;;;;3.69;62.85;102912.91;4907980;28;99577;-73
2021/12/16 07:52:02;;;;;;;1999.90;999.90;;;;;;;3.69;62.88;102910.28;4910018;28;97781;-73
2021/12/16 07:54:30;;;;;;;1999.90;999.90;;;;;;;3.66;62.99;102918.84;4910253;28;97578;-73
2021/12/16 07:56:59;;;;;;;1999.90;999.90;;;;;;;3.68;62.73;102924.22;4909370;28;97709;-73
2021/12/16 07:59:30;;;;;;;1999.90;999.90;;;;;;;3.67;62.77;102923.31;4908518;28;99755;-73
2021/12/16 08:01:59;;;;;;;1999.90;999.90;;;;;;;3.66;63.31;102924.09;4917561;28;98937;-73
2021/12/16 08:04:29;;;;;;;1999.90;999.90;;;;;;;3.68;62.76;102926.84;4911903;28;97683;-73
2021/12/16 08:07:03;;;;;;;1999.90;999.90;;;;;;;3.66;63.26;102934.63;4909692;28;98156;-73
2021/12/16 08:09:32;;;;;;;1999.90;999.90;;;;;;;3.66;63.20;102931.09;4909743;28;97373;-74
2021/12/16 08:12:00;;;;;;;1999.90;999.90;;;;;;;3.61;63.23;102935.94;4912586;28;98732;-73
2021/12/16 08:14:27;;;;;;;1999.90;999.90;;;;;;;3.59;63.67;102948.03;4909322;28;97917;-72
2021/12/16 08:16:56;;;;;;;1999.90;999.90;;;;;;;3.58;63.79;102942.66;4910643;28;97016;-73
2021/12/16 08:19:24;;;;;;;1999.90;999.90;;;;;;;3.58;63.25;102943.59;4910377;28;99027;-73
2021/12/16 08:21:52;;;;;;;1999.90;999.90;;;;;;;3.61;62.99;102949.09;4908955;28;99098;-73
2021/12/16 08:24:22;;;;;;;1999.90;999.90;;;;;;;3.59;63.47;102953.31;4909924;28;97361;-73
2021/12/16 08:26:51;;;;;;;1999.90;999.90;;;;;;;3.59;63.56;102948.03;4912275;28;97703;-74
2021/12/16 08:29:19;;;;;;;1999.90;999.90;;;;;;;3.62;63.42;102952.66;4912448;28;98737;-74
2021/12/16 08:31:47;;;;;;;1999.90;999.90;;;;;;;3.62;63.39;102943.06;4913168;28;98739;-74
2021/12/16 08:34:16;;;;;;;1999.90;999.90;;;;;;;3.62;63.42;102940.41;4913451;28;98542;-74
2021/12/16 08:36:44;;;;;;;1999.90;999.90;;;;;;;3.64;63.25;102940.53;4914266;28;97794;-74
2021/12/16 08:39:16;;;;;;;1999.90;999.90;;;;;;;3.66;63.17;102924.09;4912871;28;97051;-75
2021/12/16 08:41:55;;;;;;;1999.90;999.90;;;;;;;3.68;63.00;102927.78;4916745;28;97745;-75
2021/12/16 08:44:24;;;;;;;1999.90;999.90;;;;;;;3.72;63.05;102935.16;4915717;28;97662;-74
2021/12/16 08:46:56;;;;;;;1999.90;999.90;;;;;;;3.68;63.69;102938.31;4913533;28;97841;-75
2021/12/16 08:49:25;;;;;;;1999.90;999.90;;;;;;;3.71;63.34;102943.84;4912515;28;97964;-74
2021/12/16 08:51:55;;;;;;;1999.90;999.90;;;;;;;3.72;63.44;102940.41;4913963;28;98760;-74
2021/12/16 08:54:23;;;;;;;1999.90;999.90;;;;;;;3.75;63.36;102940.66;4913472;28;96956;-74
2021/12/16 08:56:53;;;;;;;1999.90;999.90;;;;;;;3.70;63.95;102942.00;4912357;28;97180;-74
2021/12/16 08:59:22;;;;;;;1999.90;999.90;;;;;;;3.71;63.27;102941.22;4914025;28;99698;-74
2021/12/16 09:01:52;;;;;;;1999.90;999.90;;;;;;;3.69;63.83;102952.41;4910444;28;97731;-75
2021/12/16 09:04:23;;;;;;;1999.90;999.90;;;;;;;3.67;64.13;102954.91;4896061;28;97913;-74
2021/12/16 09:06:52;;;;;;;1999.90;999.90;;;;;;;3.69;63.62;102963.88;4894478;28;97694;-74
2021/12/16 09:09:20;;;;;;;1999.90;999.90;;;;;;;3.66;64.39;102966.22;4925355;28;100519;-74
2021/12/16 09:12:03;;;;;;;1999.90;999.90;;;;;;;3.69;64.22;102968.22;4912042;28;99088;-74
2021/12/16 09:14:34;;;;;;;1999.90;999.90;;;;;;;3.68;64.13;102977.81;4913064;28;97027;-74
2021/12/16 09:17:02;;;;;;;1999.90;999.90;;;;;;;3.70;64.16;102973.59;4914024;28;97019;-74
2021/12/16 09:19:30;;;;;;;1999.90;999.90;;;;;;;3.72;63.91;102982.53;4912856;28;99147;-74
2021/12/16 09:21:58;;;;;;;1999.90;999.90;;;;;;;3.71;63.85;102983.34;4911926;28;98009;-74
2021/12/16 09:24:26;;;;;;;1999.90;999.90;;;;;;;3.71;64.27;102985.06;4910326;28;98538;-74
2021/12/16 09:26:53;;;;;;;1999.90;999.90;;;;;;;3.72;63.90;102987.81;4911144;28;97904;-74
2021/12/16 09:29:21;;;;;;;1999.90;999.90;;;;;;;3.71;63.80;102980.72;4911019;28;98186;-74
2021/12/16 09:31:50;;;;;;;1999.90;999.90;;;;;;;3.75;63.73;102988.06;4910574;28;97731;-74
2021/12/16 09:34:18;;;;;;;1999.90;999.90;;;;;;;3.77;63.51;102990.84;4911743;28;96867;-74
2021/12/16 09:36:46;;;;;;;1999.90;999.90;;;;;;;3.80;63.31;102986.75;4909514;28;97562;-74
2021/12/16 09:39:17;;;;;;;1999.90;999.90;;;;;;;3.83;63.24;102997.53;4920254;28;97788;-74
2021/12/16 09:41:48;;;;;;;1999.90;999.90;;;;;;;3.85;63.83;103002.91;4910378;28;97161;-74
2021/12/16 09:44:17;;;;;;;1999.90;999.90;;;;;;;3.86;63.27;103003.03;4913482;28;97303;-74
2021/12/16 09:46:48;;;;;;;1999.90;999.90;;;;;;;3.85;63.67;103011.75;4910343;28;97407;-74
2021/12/16 09:49:18;;;;;;;1999.90;999.90;;;;;;;3.86;63.67;103016.22;4911494;28;98199;-74
2021/12/16 09:51:47;;;;;;;1999.90;999.90;;;;;;;3.82;64.39;103014.13;4910131;28;101788;-74
2021/12/16 09:54:17;;;;;;;1999.90;999.90;;;;;;;3.84;64.07;103020.44;4909405;28;98427;-74
2021/12/16 09:56:49;;;;;;;1999.90;999.90;;;;;;;3.86;64.11;103026.75;4910372;28;97066;-74
2021/12/16 09:59:20;;;;;;;1999.90;999.90;;;;;;;3.80;64.19;103021.00;4894973;28;98861;-74
2021/12/16 10:01:51;;;;;;;1999.90;999.90;;;;;;;3.81;64.23;103020.19;4911190;28;97591;-75
2021/12/16 10:04:23;;;;;;;1999.90;999.90;;;;;;;3.80;64.50;103023.63;4910692;28;97620;-74
2021/12/16 10:06:54;;;;;;;1999.90;999.90;;;;;;;3.79;64.77;103032.28;4911786;28;96993;-74
2021/12/16 10:09:22;;;;;;;1999.90;999.90;;;;;;;3.80;64.88;103012.16;4911661;28;99912;-75
2021/12/16 10:11:53;;;;;;;1999.90;999.90;;;;;;;3.82;64.50;103016.78;4912781;28;97907;-73
2021/12/16 10:14:43;;;;;;;1999.90;999.90;;;;;;;3.85;64.11;103011.75;4911609;28;97582;-75
2021/12/16 10:17:24;;;;;;;1999.90;999.90;;;;;;;3.88;64.64;103018.97;4896629;28;98581;-74
2021/12/16 10:19:56;;;;;;;1999.90;999.90;;;;;;;3.86;64.76;103010.94;4919785;28;99256;-75
2021/12/16 10:22:29;;;;;;;1999.90;999.90;;;;;;;3.83;65.21;103015.03;4928268;28;99173;-74
2021/12/16 10:24:59;;;;;;;1999.90;999.90;;;;;;;3.88;64.42;103017.25;4911917;28;97410;-74
2021/12/16 10:27:28;;;;;;;1999.90;999.90;;;;;;;3.92;64.53;103008.81;4904933;28;97232;-74
2021/12/16 10:29:58;;;;;;;1999.90;999.90;;;;;;;3.93;64.55;103013.28;4912589;28;97815;-74
2021/12/16 10:32:40;;;;;;;1999.90;999.90;;;;;;;3.89;65.20;103015.56;4920227;28;99947;-74
2021/12/16 10:35:13;;;;;;;1999.90;999.90;;;;;;;3.88;64.86;103027.78;4913100;28;97003;-74
2021/12/16 10:37:44;;;;;;;1999.90;999.90;;;;;;;3.90;64.87;103027.91;4913424;28;97917;-74
2021/12/16 10:40:42;;;;;;;1999.90;999.90;;;;;;;3.88;64.97;103033.06;4912265;28;99073;-74
2021/12/16 10:43:13;;;;;;;1999.90;999.90;;;;;;;3.90;64.86;103026.22;4878286;28;99222;-74
2021/12/16 10:45:43;;;;;;;1999.90;999.90;;;;;;;3.91;64.84;103030.72;4909690;28;98457;-74
2021/12/16 10:48:20;;;;;;;1999.90;999.90;;;;;;;3.95;64.40;103030.16;4910343;28;98621;-74
2021/12/16 10:51:26;;;;;;;1999.90;999.90;;;;;;;3.98;65.08;103025.16;4907628;28;98808;-74
2021/12/16 10:54:19;;;;;;;1999.90;999.90;;;;;;;3.98;65.07;103030.41;4918995;28;97240;-74
2021/12/16 10:56:53;;;;;;;1999.90;999.90;;;;;;;3.96;64.94;103032.00;4909683;28;97828;-74
2021/12/16 10:59:24;;;;;;;1999.90;999.90;;;;;;;3.96;65.05;103032.00;4911335;28;98109;-74
2021/12/16 11:01:56;;;;;;;1999.90;999.90;;;;;;;4.00;64.53;103036.75;4917813;28;99635;-74
2021/12/16 11:04:31;;;;;;;1999.90;999.90;;;;;;;4.00;64.82;103035.81;4910048;28;100502;-74
2021/12/16 11:07:04;;;;;;;1999.90;999.90;;;;;;;4.00;64.68;103039.38;4921799;28;97243;-74
2021/12/16 11:09:37;;;;;;;1999.90;999.90;;;;;;;4.03;64.66;103033.41;4920515;28;97275;-74
2021/12/16 11:12:09;;;;;;;1999.90;999.90;;;;;;;4.05;64.58;103042.38;4911956;28;97763;-74
2021/12/16 11:14:38;;;;;;;1999.90;999.90;;;;;;;4.07;64.70;103044.34;4912961;28;98907;-75
2021/12/16 11:17:10;;;;;;;1999.90;999.90;;;;;;;4.13;64.16;103043.94;4914947;28;97163;-75
2021/12/16 11:19:44;;;;;;;1999.90;999.90;;;;;;;4.18;64.07;103037.34;4912285;28;97741;-74
2021/12/16 11:22:14;;;;;;;1999.90;999.90;;;;;;;4.14;64.65;103033.53;4914512;28;98962;-75
2021/12/16 11:24:44;;;;;;;1999.90;999.90;;;;;;;4.11;64.66;103029.72;4907980;28;98772;-75
2021/12/16 11:27:31;;;;;;;1999.90;999.90;;;;;;;4.10;64.49;103026.16;4911853;28;98709;-74
2021/12/16 11:30:18;;;;;;;1999.90;999.90;;;;;;;4.08;64.65;103025.09;4919081;28;96904;-74
2021/12/16 11:32:48;;;;;;;1999.90;999.90;;;;;;;4.07;64.58;103020.66;4910000;28;99343;-74
2021/12/16 11:35:30;;;;;;;1999.90;999.90;;;;;;;4.09;64.28;103023.41;4908083;28;97822;-74
2021/12/16 11:38:02;;;;;;;1999.90;999.90;;;;;;;4.10;64.56;103030.50;4909324;28;98466;-74
2021/12/16 11:41:03;;;;;;;1999.90;999.90;;;;;;;4.09;64.55;103029.59;4910181;28;99142;-74
2021/12/16 11:43:37;;;;;;;1999.90;999.90;;;;;;;4.09;64.64;103040.13;4907902;28;98913;-73
2021/12/16 11:46:07;;;;;;;1999.90;999.90;;;;;;;4.12;64.37;103043.00;4910661;28;100002;-73
2021/12/16 11:48:38;;;;;;;1999.90;999.90;;;;;;;4.16;64.27;103042.47;4894395;28;96911;-73
2021/12/16 11:51:09;;;;;;;1999.90;999.90;;;;;;;4.21;64.24;103050.75;4910244;28;97699;-73
2021/12/16 11:53:40;;;;;;;1999.90;999.90;;;;;;;4.21;64.15;103046.41;4911687;28;98857;-74
2021/12/16 11:56:11;;;;;;;1999.90;999.90;;;;;;;4.24;64.22;103048.41;4910328;28;98309;-73
2021/12/16 11:58:42;;;;;;;1999.90;999.90;;;;;;;4.27;64.02;103047.69;4910060;28;97748;-73
2021/12/16 12:01:13;;;;;;;1999.90;999.90;;;;;;;4.28;64.03;103052.19;4911981;28;98961;-73
2021/12/16 12:03:40;;;;;;;1999.90;999.90;;;;;;;4.29;64.09;103059.28;4911503;28;99003;-73
2021/12/16 12:06:19;;;;;;;1999.90;999.90;;;;;;;4.30;63.98;103062.06;4909606;28;98023;-73
2021/12/16 12:08:48;;;;;;;1999.90;999.90;;;;;;;4.33;63.89;103061.41;4913670;28;97882;-73
2021/12/16 12:11:19;;;;;;;1999.90;999.90;;;;;;;4.31;63.86;103065.63;4912837;28;97918;-73
2021/12/16 12:13:49;;;;;;;1999.90;999.90;;;;;;;4.31;63.86;103071.81;4914471;28;97992;-73
2021/12/16 12:16:19;;;;;;;1999.90;999.90;;;;;;;4.31;63.97;103070.88;4909646;28;98464;-73
2021/12/16 12:18:49;;;;;;;1999.90;999.90;;;;;;;4.26;64.17;103081.06;4915737;28;96735;-73
2021/12/16 12:21:27;;;;;;;1999.90;999.90;;;;;;;4.23;64.67;103088.69;4915324;28;97417;-73
2021/12/16 12:23:58;;;;;;;1999.90;999.90;;;;;;;4.20;64.52;103092.03;4915578;28;100910;-73
2021/12/16 12:26:30;;;;;;;1999.90;999.90;;;;;;;4.21;64.41;103100.81;4920077;28;96864;-73
2021/12/16 12:29:01;;;;;;;1999.90;999.90;;;;;;;4.18;64.39;103096.25;4913399;28;97024;-73
2021/12/16 12:31:32;;;;;;;1999.90;999.90;;;;;;;4.23;64.27;103102.81;4916040;28;97213;-73
2021/12/16 12:33:59;;;;;;;1999.90;999.90;;;;;;;4.27;64.21;103100.41;4910108;28;98534;-74
2021/12/16 12:36:27;;;;;;;1999.90;999.90;;;;;;;4.28;64.28;103102.28;4911023;28;97195;-73
2021/12/16 12:38:57;;;;;;;1999.90;999.90;;;;;;;4.28;64.16;103097.00;4913186;28;96913;-74
2021/12/16 12:41:26;;;;;;;1999.90;999.90;;;;;;;4.26;64.10;103109.13;4921819;28;98503;-78
2021/12/16 12:43:57;;;;;;;1999.90;999.90;;;;;;;4.23;64.28;103102.81;4918173;28;99226;-79
2021/12/16 12:46:26;;;;;;;1999.90;999.90;;;;;;;4.26;64.26;103095.94;4918891;28;99350;-74
2021/12/16 12:48:55;;;;;;;1999.90;999.90;;;;;;;4.30;64.06;103087.50;4913395;28;98054;-74
2021/12/16 12:51:31;;;;;;;1999.90;999.90;;;;;;;4.27;64.08;103087.22;4922116;28;96878;-74
2021/12/16 12:54:00;;;;;;;1999.90;999.90;;;;;;;4.29;64.26;103080.38;4911379;28;98061;-74
2021/12/16 12:56:31;;;;;;;1999.90;999.90;;;;;;;4.32;63.71;103085.94;4911548;28;97646;-75
2021/12/16 12:59:04;;;;;;;1999.90;999.90;;;;;;;4.33;63.77;103086.06;4911603;28;97528;-74